Accueil
METAR-TAF:

METAR-TAF

Aéroports :

Aéroport international de Budapest-Ferenc Liszt

Budapest, Hongrie

latitude: 47-26N, longitude: 019-16E, altitude: 151 m

Observation

Le bulletin a été fait il y a 17 minutes, à 18:30 UTC
Vent 6 kt de est
Température 4°C
Humidité 75%
Pression 1027 hPa
Visibilité 10 km ou plus
pas de nuages en-dessous de 1500 mètres et pas de cumulonimbus.

METAR: LHBP 161830Z 10006KT CAVOK 04/00 Q1027 NOSIG

Heure: 19:47 (18:47 UTC)

Prévision

Le bulletin a été fait il y a 1 heure et 32 minutes, à 17:15 UTC
Prévision valable du 16 à 18 UTC au 17 à 18 UTC
Vent 7 kt de sud-est
Visibilité 10 km ou plus
pas de nuages en-dessous de 1500 mètres et pas de cumulonimbus.

TAF: LHBP 161715Z 1618/1718 14007KT CAVOK

Observations et prévisions météorologiques de plus de 4000 aéroports (messages METAR et TAF).

Les stations disponibles sont représentées par des disques jaunes et rouges sur la carte.

Passer la souris dessus pour voir le nom de la station.

Cliquer dessus pour voir les observations et prévisions météorologiques.

Pour changer de carte: cliquez sur les boutons verts avec une croix noire pour zoomer, sur le bouton vert avec un tiret pour effectuer un zoom arrière, ou sur les flèches vertes pour les cartes adjacentes.


METAR-TAF: